Time;durP1;ratioP1;P1;durP2;ratioP2;P2;SDS_P1;SDS_P2;PMS_P1;PMS_P2;Temp;Humidity;BMP_temperature;BMP_pressure;BME280_temperature;BME280_humidity;BME280_pressure;Samples;Min_cycle;Max_cycle;Signal;HPM_P1;HPM_P2
2021/03/15 00:00:24;;;;;;;19.73;9.25;;;;;;;3.01;63.66;97761.50;5111666;28;20092;-78
2021/03/15 00:02:52;;;;;;;21.52;10.43;;;;;;;2.94;64.06;97762.53;5111416;28;20043;-78
2021/03/15 00:05:19;;;;;;;22.85;10.77;;;;;;;2.94;64.05;97761.72;5093420;28;20027;-78
2021/03/15 00:07:44;;;;;;;27.17;11.68;;;;;;;2.94;63.53;97749.00;5093733;28;20031;-78
2021/03/15 00:10:10;;;;;;;26.45;11.63;;;;;;;3.00;63.58;97740.91;5111492;28;20051;-78
2021/03/15 00:12:40;;;;;;;21.83;9.88;;;;;;;3.05;63.89;97746.34;5093338;28;20110;-77
2021/03/15 00:15:06;;;;;;;24.47;11.67;;;;;;;3.15;63.79;97743.66;5092769;28;20031;-77
2021/03/15 00:17:32;;;;;;;21.60;11.18;;;;;;;3.18;63.60;97739.63;5112805;28;20027;-78
2021/03/15 00:19:57;;;;;;;21.85;11.73;;;;;;;3.24;63.48;97735.84;5111242;28;20034;-78
2021/03/15 00:22:23;;;;;;;22.20;10.32;;;;;;;3.28;63.53;97737.75;5111303;28;20031;-78
2021/03/15 00:24:49;;;;;;;18.88;9.90;;;;;;;3.27;63.94;97740.72;5111059;28;20480;-78
2021/03/15 00:27:14;;;;;;;18.08;10.02;;;;;;;3.26;63.48;97747.25;5111048;28;20024;-78
2021/03/15 00:29:39;;;;;;;20.42;10.27;;;;;;;3.20;63.76;97748.28;5092538;28;20031;-78
2021/03/15 00:32:05;;;;;;;20.88;10.65;;;;;;;3.17;63.77;97744.19;5109756;28;20383;-77
2021/03/15 00:34:33;;;;;;;22.35;10.98;;;;;;;3.20;63.82;97754.50;5112328;28;20098;-78
2021/03/15 00:36:59;;;;;;;21.48;10.18;;;;;;;3.20;63.90;97751.81;5110371;28;20084;-77
2021/03/15 00:39:25;;;;;;;18.83;9.05;;;;;;;3.19;63.71;97752.88;5112268;28;20495;-78
2021/03/15 00:41:50;;;;;;;20.23;9.55;;;;;;;3.16;63.79;97753.41;5111508;28;20035;-78
2021/03/15 00:44:15;;;;;;;17.17;8.75;;;;;;;3.18;64.07;97751.25;5111958;28;20032;-77
2021/03/15 00:46:41;;;;;;;21.45;9.77;;;;;;;3.21;63.67;97755.34;5112105;28;20099;-78
2021/03/15 00:49:06;;;;;;;19.25;9.98;;;;;;;3.21;64.18;97750.72;5112085;28;20103;-77
2021/03/15 00:51:32;;;;;;;16.13;8.00;;;;;;;3.21;64.01;97750.72;5111842;28;20031;-78
2021/03/15 00:53:57;;;;;;;15.48;8.05;;;;;;;3.20;64.51;97753.72;5111304;28;20039;-77
2021/03/15 00:56:22;;;;;;;18.73;9.13;;;;;;;3.22;64.07;97746.13;5105272;28;20364;-78
2021/03/15 00:58:48;;;;;;;16.90;8.50;;;;;;;3.23;64.12;97743.16;5111679;28;20491;-78
2021/03/15 01:01:16;;;;;;;15.70;8.95;;;;;;;3.21;63.60;97744.50;5111901;28;20064;-77
2021/03/15 01:03:41;;;;;;;18.73;9.55;;;;;;;3.20;64.04;97732.84;5111075;28;20051;-77
2021/03/15 01:06:10;;;;;;;16.27;8.35;;;;;;;3.21;64.21;97734.47;5110816;28;20432;-77
2021/03/15 01:08:35;;;;;;;15.73;8.18;;;;;;;3.21;63.69;97739.88;5109816;28;20051;-78
2021/03/15 01:11:01;;;;;;;15.15;9.13;;;;;;;3.21;63.88;97739.09;5110931;28;20038;-78
2021/03/15 01:13:26;;;;;;;15.13;7.60;;;;;;;3.19;63.94;97728.50;5110741;28;20028;-78
2021/03/15 01:15:51;;;;;;;17.48;8.77;;;;;;;3.18;63.53;97728.78;5092314;28;20027;-77
2021/03/15 01:18:17;;;;;;;17.73;9.60;;;;;;;3.18;64.32;97720.66;5111546;28;20055;-77
2021/03/15 01:20:42;;;;;;;15.63;9.05;;;;;;;3.25;64.19;97723.94;5093264;28;20459;-79
2021/03/15 01:23:08;;;;;;;19.63;10.25;;;;;;;3.25;64.04;97719.31;5111286;28;20404;-78
2021/03/15 01:25:35;;;;;;;15.07;8.70;;;;;;;3.23;64.02;97715.25;5103918;28;20028;-79
2021/03/15 01:28:03;;;;;;;14.70;8.00;;;;;;;3.20;63.57;97710.34;5104618;28;20034;-78
2021/03/15 01:30:30;;;;;;;12.77;8.32;;;;;;;3.21;64.52;97712.00;5109096;28;20107;-78
2021/03/15 01:32:57;;;;;;;15.85;8.98;;;;;;;3.28;64.03;97715.25;5092507;28;20020;-78
2021/03/15 01:35:23;;;;;;;16.77;8.85;;;;;;;3.32;63.80;97713.63;5112127;28;20025;-78
2021/03/15 01:37:49;;;;;;;16.77;8.32;;;;;;;3.35;63.67;97717.72;5089961;28;20165;-78
2021/03/15 01:40:15;;;;;;;16.92;8.63;;;;;;;3.36;64.01;97712.00;5083480;28;20114;-78
2021/03/15 01:42:40;;;;;;;15.63;8.02;;;;;;;3.36;63.30;97701.16;5093048;28;20039;-78
2021/03/15 01:45:06;;;;;;;15.60;8.50;;;;;;;3.42;63.41;97708.22;5107107;28;20480;-78
2021/03/15 01:47:33;;;;;;;17.48;8.63;;;;;;;3.46;63.77;97696.84;5092283;28;20108;-79
2021/03/15 01:49:58;;;;;;;14.98;8.15;;;;;;;3.49;63.63;97702.53;5092202;28;20020;-79
2021/03/15 01:52:24;;;;;;;16.23;8.38;;;;;;;3.50;63.19;97696.03;5093346;28;20149;-78
2021/03/15 01:54:50;;;;;;;15.07;7.68;;;;;;;3.56;63.40;97691.47;5102576;28;20115;-78
2021/03/15 01:57:15;;;;;;;20.02;9.50;;;;;;;3.53;63.01;97692.78;5092295;28;20397;-78
2021/03/15 01:59:41;;;;;;;14.23;8.05;;;;;;;3.57;63.56;97690.38;5092288;28;20024;-78
2021/03/15 02:02:06;;;;;;;13.20;7.18;;;;;;;3.55;63.30;97681.69;5093633;28;20039;-77
2021/03/15 02:04:32;;;;;;;18.92;9.40;;;;;;;3.56;63.33;97680.63;5105262;28;20031;-78
2021/03/15 02:06:57;;;;;;;14.10;8.20;;;;;;;3.55;62.63;97690.63;5093234;28;20028;-78
2021/03/15 02:09:23;;;;;;;14.45;8.43;;;;;;;3.59;62.77;97688.22;5091960;28;20063;-78
2021/03/15 02:12:06;;;;;;;13.40;7.80;;;;;;;3.56;63.09;97683.31;5092300;28;20043;-78
2021/03/15 02:14:39;;;;;;;14.10;8.10;;;;;;;3.50;63.09;97693.31;5092137;28;20522;-78
2021/03/15 02:17:50;;;;;;;13.57;8.20;;;;;;;3.43;63.33;97696.31;5093344;28;20032;-77
2021/03/15 02:20:38;;;;;;;16.75;8.88;;;;;;;3.38;63.30;97681.94;5091950;28;20421;-77
2021/03/15 02:23:28;;;;;;;16.45;9.77;;;;;;;3.34;62.62;97684.34;5073935;28;20024;-77
2021/03/15 02:26:15;;;;;;;16.88;9.13;;;;;;;3.35;63.22;97690.59;5095677;28;20503;-77
2021/03/15 02:29:01;;;;;;;17.40;9.05;;;;;;;3.35;62.95;97685.19;5096890;28;20077;-77
2021/03/15 02:31:59;;;;;;;17.38;9.55;;;;;;;3.32;63.33;97680.31;5096757;28;20497;-77
2021/03/15 02:34:40;;;;;;;19.02;9.32;;;;;;;3.31;63.28;97686.81;5098702;28;20035;-77
2021/03/15 02:37:06;;;;;;;;;;;;;;;3.28;63.19;97690.84;5096056;28;20028;-77
2021/03/15 02:39:38;;;;;;;19.30;9.30;;;;;;;3.23;63.09;97688.94;5094319;28;19912;-77
2021/03/15 02:42:09;;;;;;;18.98;10.05;;;;;;;3.20;63.04;97697.59;5096959;28;20032;-76
2021/03/15 02:44:36;;;;;;;21.38;10.88;;;;;;;3.21;63.19;97695.72;5103474;28;20020;-77
2021/03/15 02:47:02;;;;;;;16.60;9.27;;;;;;;3.18;63.35;97690.84;5095322;28;20028;-76
2021/03/15 02:49:31;;;;;;;21.88;11.23;;;;;;;3.14;63.51;97695.97;5077259;28;20044;-77
2021/03/15 02:51:59;;;;;;;21.98;11.60;;;;;;;3.13;63.23;97697.88;5112712;28;20031;-77
2021/03/15 02:54:26;;;;;;;19.20;9.40;;;;;;;3.07;63.89;97695.38;5114923;28;20416;-76
2021/03/15 02:56:54;;;;;;;19.25;11.50;;;;;;;3.05;63.60;97700.28;5095278;28;20026;-78
2021/03/15 02:59:21;;;;;;;19.08;10.73;;;;;;;3.03;63.71;97702.44;5094082;28;20092;-78
2021/03/15 03:01:47;;;;;;;19.63;10.55;;;;;;;3.00;63.49;97703.78;5095331;28;20028;-77
2021/03/15 03:04:13;;;;;;;23.02;12.48;;;;;;;2.97;63.34;97704.31;5098610;28;20027;-77
2021/03/15 03:06:41;;;;;;;23.15;12.00;;;;;;;2.95;63.83;97707.28;5097331;28;20028;-78
2021/03/15 03:09:11;;;;;;;22.13;11.93;;;;;;;2.93;63.61;97711.31;5110091;28;20104;-78
2021/03/15 03:11:37;;;;;;;27.97;13.03;;;;;;;2.93;64.07;97712.16;5094771;28;20043;-78
2021/03/15 03:14:05;;;;;;;26.15;12.38;;;;;;;2.94;63.82;97715.66;5094989;28;20043;-78
2021/03/15 03:16:35;;;;;;;26.38;13.27;;;;;;;2.97;63.62;97725.97;5094836;28;20028;-77
2021/03/15 03:19:02;;;;;;;23.73;11.68;;;;;;;2.97;63.85;97724.09;5094985;28;20389;-77
2021/03/15 03:21:29;;;;;;;22.88;11.30;;;;;;;2.96;64.04;97725.19;5094909;28;20024;-78
2021/03/15 03:23:58;;;;;;;23.00;11.35;;;;;;;2.95;64.04;97726.25;5094937;28;20153;-78
2021/03/15 03:26:25;;;;;;;19.88;11.30;;;;;;;2.95;64.09;97720.00;5093764;28;20028;-78
2021/03/15 03:28:53;;;;;;;23.98;12.02;;;;;;;2.97;63.58;97721.38;5096883;28;20048;-78
2021/03/15 03:31:19;;;;;;;29.67;15.38;;;;;;;3.00;63.79;97727.34;5114006;28;20483;-77
2021/03/15 03:33:46;;;;;;;31.63;16.13;;;;;;;3.02;63.42;97730.63;5113357;28;20111;-78
2021/03/15 03:36:11;;;;;;;31.60;15.52;;;;;;;3.01;63.34;97729.78;5114652;28;20028;-78
2021/03/15 03:38:41;;;;;;;26.98;12.82;;;;;;;3.00;63.91;97728.16;5114851;28;20023;-78
2021/03/15 03:41:07;;;;;;;27.90;13.25;;;;;;;3.00;63.70;97733.56;5115020;28;20027;-78
2021/03/15 03:43:32;;;;;;;22.98;11.48;;;;;;;3.02;63.69;97731.41;5114356;28;20406;-78
2021/03/15 03:45:58;;;;;;;27.00;12.77;;;;;;;3.07;63.48;97738.75;5097266;28;20032;-78
2021/03/15 03:48:23;;;;;;;25.70;12.75;;;;;;;3.12;63.75;97733.34;5094402;28;20043;-79
2021/03/15 03:50:49;;;;;;;23.27;11.65;;;;;;;3.16;63.36;97745.28;5094568;28;20027;-79
2021/03/15 03:53:44;;;;;;;28.20;13.90;;;;;;;3.17;62.99;97737.97;5102460;28;20026;-78
2021/03/15 03:56:13;;;;;;;21.92;11.90;;;;;;;3.20;63.51;97738.25;5100951;28;20434;-78
2021/03/15 03:58:44;;;;;;;21.92;12.10;;;;;;;3.21;63.28;97742.59;5095424;28;20028;-79
2021/03/15 04:01:11;;;;;;;22.10;12.13;;;;;;;3.22;63.21;97740.72;5091333;28;20124;-78
2021/03/15 04:03:39;;;;;;;22.35;11.23;;;;;;;3.25;63.12;97741.00;5096185;28;20407;-78
2021/03/15 04:06:11;;;;;;;24.85;12.70;;;;;;;3.29;63.02;97741.25;5102382;28;20032;-78
2021/03/15 04:08:48;;;;;;;26.55;12.63;;;;;;;3.31;62.67;97739.09;5093705;28;20127;-78
2021/03/15 04:11:14;;;;;;;22.73;12.05;;;;;;;3.32;62.50;97739.94;5093929;28;20063;-78
2021/03/15 04:13:43;;;;;;;21.73;11.88;;;;;;;3.32;62.91;97740.72;5093960;28;20052;-77
2021/03/15 04:16:12;;;;;;;21.70;12.02;;;;;;;3.34;62.45;97745.91;5100860;28;20035;-77
2021/03/15 04:18:42;;;;;;;20.00;11.67;;;;;;;3.34;62.68;97741.28;5107531;28;20077;-78
2021/03/15 04:21:09;;;;;;;21.17;11.65;;;;;;;3.33;62.34;97745.06;5095175;28;20357;-78
2021/03/15 04:23:39;;;;;;;25.33;12.90;;;;;;;3.33;62.49;97744.28;5099917;28;20046;-78
2021/03/15 04:26:06;;;;;;;22.85;12.80;;;;;;;3.31;62.91;97733.69;5112262;28;20399;-78
2021/03/15 04:28:34;;;;;;;24.10;13.48;;;;;;;3.33;62.51;97738.84;5102875;28;20059;-78
2021/03/15 04:31:01;;;;;;;26.08;13.02;;;;;;;3.32;62.65;97735.31;5093592;28;20464;-78
2021/03/15 04:33:27;;;;;;;21.58;12.50;;;;;;;3.36;62.59;97727.47;5103121;28;20072;-79
2021/03/15 04:35:53;;;;;;;21.40;12.52;;;;;;;3.37;62.36;97724.47;5113159;28;20019;-78
2021/03/15 04:38:21;;;;;;;23.58;12.70;;;;;;;3.35;62.34;97725.84;5112393;28;20035;-78
2021/03/15 04:40:49;;;;;;;17.60;11.02;;;;;;;3.36;62.26;97736.41;5094288;28;20036;-79
2021/03/15 04:43:17;;;;;;;22.83;12.40;;;;;;;3.37;62.00;97726.41;5093137;28;20020;-79
2021/03/15 04:45:43;;;;;;;22.10;11.30;;;;;;;3.39;62.52;97729.66;5093493;28;20050;-79
2021/03/15 04:48:11;;;;;;;16.90;9.55;;;;;;;3.37;62.03;97724.47;5098923;28;20039;-78
2021/03/15 04:50:38;;;;;;;16.75;9.68;;;;;;;3.36;61.80;97719.34;5107269;28;20625;-79
2021/03/15 04:53:04;;;;;;;17.33;10.23;;;;;;;3.40;62.49;97721.25;5099665;28;20063;-79
2021/03/15 04:55:30;;;;;;;18.02;10.68;;;;;;;3.45;61.76;97720.44;5093399;28;20476;-79
2021/03/15 04:58:01;;;;;;;22.30;10.27;;;;;;;3.45;61.55;97716.91;5093291;28;20537;-78
2021/03/15 05:00:27;;;;;;;17.98;11.00;;;;;;;3.47;61.99;97726.41;5102380;28;20036;-78
2021/03/15 05:02:54;;;;;;;19.67;10.77;;;;;;;3.43;61.88;97726.13;5109321;28;20106;-79
2021/03/15 05:05:22;;;;;;;18.50;10.73;;;;;;;3.44;61.48;97724.25;5105520;28;20035;-77
2021/03/15 05:07:50;;;;;;;18.25;10.25;;;;;;;3.46;61.90;97718.53;5094309;28;20457;-76
2021/03/15 05:10:17;;;;;;;23.73;12.77;;;;;;;3.46;61.30;97729.38;5098620;28;20067;-78
2021/03/15 05:12:44;;;;;;;24.63;12.30;;;;;;;3.42;62.07;97723.69;5080942;28;20430;-78
2021/03/15 05:15:12;;;;;;;22.48;12.73;;;;;;;3.42;61.85;97724.50;5106907;28;20054;-78
2021/03/15 05:17:39;;;;;;;19.35;11.38;;;;;;;3.47;61.82;97715.56;5100739;28;20491;-79
2021/03/15 05:20:14;;;;;;;18.65;11.25;;;;;;;3.54;62.07;97726.16;5109172;28;20020;-78
2021/03/15 05:22:42;;;;;;;19.42;11.13;;;;;;;3.52;61.39;97720.19;5108542;28;20024;-78
2021/03/15 05:25:10;;;;;;;18.52;11.68;;;;;;;3.60;61.28;97725.09;5112493;28;20546;-77
2021/03/15 05:27:36;;;;;;;18.92;12.05;;;;;;;3.67;61.18;97716.69;5111339;28;20127;-77
2021/03/15 05:30:07;;;;;;;22.17;12.48;;;;;;;3.67;61.32;97724.81;5107825;28;20039;-77
2021/03/15 05:32:36;;;;;;;29.13;15.80;;;;;;;3.65;61.66;97725.09;5111860;28;20023;-78
2021/03/15 05:35:03;;;;;;;55.53;27.15;;;;;;;3.67;61.45;97724.81;5104507;28;20028;-78
2021/03/15 05:37:29;;;;;;;72.22;33.38;;;;;;;3.65;61.07;97725.09;5110742;28;20058;-77
2021/03/15 05:39:55;;;;;;;85.55;36.40;;;;;;;3.69;61.44;97725.38;5110435;28;20055;-77
2021/03/15 05:42:42;;;;;;;79.85;34.70;;;;;;;3.69;61.31;97723.44;5093588;28;20031;-77
2021/03/15 05:45:33;;;;;;;86.30;36.78;;;;;;;3.77;61.06;97716.69;5112873;28;20031;-76
2021/03/15 05:48:39;;;;;;;79.30;33.55;;;;;;;3.76;61.34;97723.22;5112471;28;20042;-77
2021/03/15 05:51:27;;;;;;;47.17;21.60;;;;;;;3.78;61.27;97718.31;5111268;28;20035;-77
2021/03/15 05:54:14;;;;;;;36.28;18.98;;;;;;;3.82;61.13;97721.31;5111281;28;20550;-76
2021/03/15 05:57:07;;;;;;;20.25;11.80;;;;;;;3.86;60.63;97716.97;5111925;28;20028;-77
2021/03/15 06:00:10;;;;;;;19.77;11.82;;;;;;;3.95;61.22;97717.22;5114411;28;20030;-77
2021/03/15 06:03:08;;;;;;;19.33;11.75;;;;;;;3.99;60.57;97721.03;5116877;28;20023;-76
2021/03/15 06:05:35;;;;;;;17.73;10.55;;;;;;;3.91;60.34;97722.41;5098795;28;20030;-76
2021/03/15 06:08:17;;;;;;;16.05;11.07;;;;;;;3.87;60.06;97724.03;5098607;28;20028;-76
2021/03/15 06:10:51;;;;;;;24.80;13.80;;;;;;;3.90;60.06;97726.19;5116688;28;20084;-75
2021/03/15 06:13:17;;;;;;;31.85;16.35;;;;;;;3.97;60.59;97729.47;5116848;28;20055;-75
2021/03/15 06:15:47;;;;;;;16.27;9.27;;;;;;;3.95;59.99;97728.09;5116667;28;20059;-76
2021/03/15 06:18:16;;;;;;;;;;;;;;;3.95;59.97;97730.81;5117256;28;20027;-75
2021/03/15 06:20:47;;;;;;;17.08;10.40;;;;;;;3.92;60.29;97734.88;5116683;28;19964;-76
2021/03/15 06:23:16;;;;;;;51.65;20.13;;;;;;;3.92;60.19;97729.47;5097951;28;20023;-75
2021/03/15 06:25:43;;;;;;;59.50;21.17;;;;;;;3.93;59.81;97738.41;5097677;28;20027;-76
2021/03/15 06:28:10;;;;;;;44.80;17.90;;;;;;;3.90;59.83;97726.19;5116097;28;20107;-76
2021/03/15 06:30:36;;;;;;;34.92;15.57;;;;;;;3.99;59.70;97740.03;5115997;28;20357;-76
2021/03/15 06:33:02;;;;;;;40.55;17.23;;;;;;;4.12;59.84;97727.81;5097780;28;20035;-76
2021/03/15 06:35:29;;;;;;;28.45;12.55;;;;;;;4.20;60.23;97724.56;5115978;28;20106;-76
2021/03/15 06:37:56;;;;;;;47.58;18.20;;;;;;;4.25;59.49;97738.13;5116280;28;20443;-76
2021/03/15 06:40:23;;;;;;;45.97;18.30;;;;;;;4.27;59.78;97730.53;5115985;28;20057;-76
2021/03/15 06:42:52;;;;;;;98.32;27.75;;;;;;;4.29;59.10;97731.06;5115027;28;20582;-75
2021/03/15 06:45:21;;;;;;;43.55;15.57;;;;;;;4.28;59.49;97724.00;5115618;28;20028;-75
2021/03/15 06:47:49;;;;;;;44.85;16.52;;;;;;;4.26;58.73;97730.81;5114609;28;20031;-75
2021/03/15 06:50:17;;;;;;;29.42;14.13;;;;;;;4.20;59.53;97723.75;5114011;28;20519;-75
2021/03/15 06:52:54;;;;;;;69.55;22.75;;;;;;;4.17;59.45;97736.78;5115057;28;20019;-75
2021/03/15 06:55:22;;;;;;;81.65;30.80;;;;;;;4.12;59.01;97725.94;5115513;28;20499;-75
2021/03/15 06:57:48;;;;;;;78.45;28.08;;;;;;;4.12;59.13;97727.81;5115541;28;20511;-76
2021/03/15 07:00:18;;;;;;;72.40;22.90;;;;;;;4.14;59.24;97731.91;5115308;28;20028;-76
2021/03/15 07:02:43;;;;;;;52.33;19.60;;;;;;;4.21;58.83;97739.75;5106485;27;20101;-75
2021/03/15 07:05:11;;;;;;;20.23;9.02;;;;;;;4.26;59.14;97739.75;5098845;28;20063;-76
2021/03/15 07:07:38;;;;;;;26.88;10.30;;;;;;;4.22;58.11;97738.66;5113608;27;20430;-76
2021/03/15 07:10:16;;;;;;;35.97;13.73;;;;;;;4.16;59.08;97735.16;5092664;28;20044;-76
2021/03/15 07:12:41;;;;;;;55.45;18.58;;;;;;;4.23;58.06;97747.66;5093097;28;20024;-79
2021/03/15 07:15:07;;;;;;;97.63;31.27;;;;;;;4.27;58.59;97735.16;5094716;28;20020;-78
2021/03/15 07:17:33;;;;;;;42.47;16.10;;;;;;;4.26;58.60;97741.66;5094295;28;20023;-78
2021/03/15 07:19:59;;;;;;;34.20;12.65;;;;;;;4.25;58.35;97740.84;5094693;28;20024;-80
2021/03/15 07:22:29;;;;;;;29.92;11.15;;;;;;;4.30;58.33;97735.41;5094956;28;20024;-78
2021/03/15 07:25:14;;;;;;;56.58;17.95;;;;;;;4.38;57.97;97749.53;5095225;28;20428;-77
2021/03/15 07:27:44;;;;;;;31.73;11.90;;;;;;;4.49;57.82;97747.59;5094738;28;20051;-78
2021/03/15 07:30:30;;;;;;;49.00;14.55;;;;;;;4.59;57.52;97744.88;5106888;28;20073;-79
2021/03/15 07:32:58;;;;;;;30.35;11.80;;;;;;;4.67;57.57;97755.19;5115692;28;20081;-78
2021/03/15 07:35:42;;;;;;;27.83;11.27;;;;;;;4.75;57.16;97746.47;5115473;28;20099;-78
2021/03/15 07:38:08;;;;;;;20.20;9.30;;;;;;;4.83;57.52;97744.28;5115228;28;20049;-76
2021/03/15 07:40:39;;;;;;;31.75;13.05;;;;;;;4.94;57.37;97747.75;5115403;28;20503;-76
2021/03/15 07:43:04;;;;;;;20.10;8.85;;;;;;;5.09;57.50;97755.06;5096718;28;20098;-77
2021/03/15 07:45:31;;;;;;;22.33;9.02;;;;;;;5.16;56.02;97755.56;5114873;28;20057;-78
2021/03/15 07:48:32;;;;;;;17.83;9.07;;;;;;;5.18;56.50;97756.09;5114883;28;20035;-78
2021/03/15 07:51:01;;;;;;;11.68;6.38;;;;;;;5.19;55.75;97746.84;5109338;28;20040;-77
2021/03/15 07:53:40;;;;;;;11.33;6.93;;;;;;;5.20;55.52;97753.91;5103512;28;20058;-82
2021/03/15 07:56:07;;;;;;;9.02;5.93;;;;;;;5.24;55.32;97760.44;5094884;28;20056;-79
2021/03/15 07:58:36;;;;;;;15.25;7.60;;;;;;;5.28;55.00;97750.63;5094481;28;20089;-78
2021/03/15 08:01:04;;;;;;;12.52;5.97;;;;;;;5.37;55.27;97753.56;5076283;28;20031;-76
2021/03/15 08:03:30;;;;;;;13.52;8.05;;;;;;;5.43;55.40;97746.22;5094492;28;20082;-75
2021/03/15 08:05:58;;;;;;;8.50;5.38;;;;;;;5.55;55.65;97754.03;5094185;28;20106;-75
2021/03/15 08:08:24;;;;;;;14.23;7.55;;;;;;;5.61;55.27;97753.72;5092697;28;20034;-76
2021/03/15 08:10:50;;;;;;;9.82;5.85;;;;;;;5.64;54.75;97761.31;5094119;28;20114;-75
2021/03/15 08:13:21;;;;;;;12.18;6.97;;;;;;;5.69;54.95;97765.09;5094096;28;20024;-74
2021/03/15 08:15:51;;;;;;;16.08;7.78;;;;;;;5.72;53.80;97759.91;5093857;28;20062;-74
2021/03/15 08:18:23;;;;;;;11.48;7.25;;;;;;;5.71;53.51;97749.31;5093856;28;20107;-74
2021/03/15 08:20:51;;;;;;;14.48;7.43;;;;;;;5.72;53.84;97743.56;5075524;28;20032;-75
2021/03/15 08:23:18;;;;;;;24.35;13.30;;;;;;;5.74;52.86;97746.03;5093894;28;20035;-74
2021/03/15 08:25:46;;;;;;;14.68;8.18;;;;;;;5.69;53.70;97746.88;5093621;28;20035;-76
2021/03/15 08:28:13;;;;;;;32.35;22.27;;;;;;;5.64;52.76;97742.28;5093573;28;20480;-75
2021/03/15 08:30:45;;;;;;;25.02;17.45;;;;;;;5.58;53.52;97734.44;5093509;28;20032;-75
2021/03/15 08:33:14;;;;;;;11.73;7.50;;;;;;;5.52;52.65;97744.50;5092650;28;20361;-75
2021/03/15 08:35:41;;;;;;;12.63;7.45;;;;;;;5.41;53.06;97740.25;5092671;28;20059;-75
2021/03/15 08:38:07;;;;;;;23.40;10.00;;;;;;;5.39;52.71;97729.63;5093744;28;20476;-75
2021/03/15 08:40:42;;;;;;;12.48;7.00;;;;;;;5.45;52.76;97733.16;5093620;28;20024;-75
2021/03/15 08:43:21;;;;;;;10.00;6.15;;;;;;;5.61;53.17;97725.72;5093638;28;20103;-75
2021/03/15 08:45:57;;;;;;;10.35;6.50;;;;;;;5.81;53.24;97727.50;5093652;28;20024;-75
2021/03/15 08:48:37;;;;;;;11.30;6.47;;;;;;;6.00;52.53;97724.94;5093424;28;20106;-75
2021/03/15 08:51:05;;;;;;;9.73;6.40;;;;;;;6.24;52.41;97716.84;5093302;28;20038;-76
2021/03/15 08:53:39;;;;;;;8.25;5.15;;;;;;;6.49;51.94;97714.16;5093656;28;20039;-74
2021/03/15 08:56:10;;;;;;;10.52;5.55;;;;;;;6.63;51.44;97712.34;5093336;28;20022;-76
2021/03/15 08:58:41;;;;;;;9.65;4.85;;;;;;;6.71;52.01;97702.75;5093352;28;20024;-77
2021/03/15 09:01:28;;;;;;;17.20;9.50;;;;;;;6.76;51.28;97710.84;5093305;28;20480;-76
2021/03/15 09:04:04;;;;;;;13.65;7.82;;;;;;;6.76;51.67;97710.84;5092679;28;20413;-76
2021/03/15 09:06:32;;;;;;;10.70;6.90;;;;;;;6.70;51.01;97717.47;5093157;28;20020;-76
2021/03/15 09:09:03;;;;;;;13.93;7.72;;;;;;;6.68;51.24;97706.84;5092814;28;20042;-76
2021/03/15 09:11:35;;;;;;;15.60;9.15;;;;;;;6.63;50.54;97700.66;5092991;28;20031;-76
2021/03/15 09:14:20;;;;;;;13.07;7.38;;;;;;;6.62;51.44;97702.56;5093116;28;20048;-76
2021/03/15 09:17:15;;;;;;;12.18;7.38;;;;;;;6.58;51.00;97698.78;5092903;28;20026;-75
2021/03/15 09:19:43;;;;;;;7.07;4.35;;;;;;;6.57;50.09;97699.88;5099269;28;20035;-75
2021/03/15 09:22:31;;;;;;;11.52;5.90;;;;;;;6.59;50.50;97689.50;5112668;28;20042;-77
2021/03/15 09:25:02;;;;;;;16.17;7.40;;;;;;;6.64;49.42;97696.84;5112834;28;20054;-77
2021/03/15 09:27:29;;;;;;;13.48;7.53;;;;;;;6.61;49.68;97690.03;5113110;28;20028;-75
2021/03/15 09:29:56;;;;;;;9.82;6.70;;;;;;;6.68;49.39;97684.25;5113110;28;20019;-77
2021/03/15 09:32:28;;;;;;;11.25;5.75;;;;;;;6.80;49.63;97686.56;5112507;28;20030;-77
2021/03/15 09:34:59;;;;;;;11.13;5.22;;;;;;;6.93;49.21;97685.84;5110704;28;20608;-77
2021/03/15 09:37:28;;;;;;;49.13;39.47;;;;;;;7.01;48.75;97678.97;5111248;28;20024;-77
2021/03/15 09:39:57;;;;;;;12.90;9.20;;;;;;;7.14;49.18;97683.69;5111311;28;20047;-77
2021/03/15 09:42:23;;;;;;;9.45;5.00;;;;;;;7.26;48.16;97674.25;5112577;28;20024;-77
2021/03/15 09:44:49;;;;;;;6.50;3.88;;;;;;;7.27;46.80;97678.63;5112754;28;20102;-76
2021/03/15 09:47:26;;;;;;;3.42;2.88;;;;;;;7.24;46.16;97682.75;5112476;28;20106;-77
2021/03/15 09:49:52;;;;;;;7.43;4.82;;;;;;;7.31;46.21;97671.47;5112656;28;20340;-79
2021/03/15 09:52:21;;;;;;;8.48;4.28;;;;;;;7.49;45.58;97678.03;5111932;28;20020;-78
2021/03/15 09:54:54;;;;;;;5.93;3.85;;;;;;;7.65;44.84;97675.09;5112487;28;20107;-78
2021/03/15 09:57:21;;;;;;;16.92;8.75;;;;;;;7.71;45.15;97676.63;5112691;28;20028;-79
2021/03/15 09:59:47;;;;;;;16.23;8.77;;;;;;;7.77;46.61;97664.50;5112598;28;20515;-79
2021/03/15 10:02:27;;;;;;;16.45;10.43;;;;;;;7.84;47.52;97667.66;5112965;28;20118;-79
2021/03/15 10:04:53;;;;;;;24.52;12.35;;;;;;;7.87;46.47;97674.47;5112826;28;20019;-79
2021/03/15 10:07:18;;;;;;;21.75;11.07;;;;;;;7.83;46.71;97668.78;5094630;28;20092;-79
2021/03/15 10:09:44;;;;;;;25.77;12.75;;;;;;;7.78;46.65;97673.53;5112796;28;20040;-79
2021/03/15 10:12:30;;;;;;;23.83;10.77;;;;;;;7.71;46.63;97669.25;5112418;28;20460;-80
2021/03/15 10:15:00;;;;;;;32.53;14.35;;;;;;;7.74;46.74;97670.59;5112535;28;20036;-79
2021/03/15 10:17:26;;;;;;;21.92;11.23;;;;;;;7.74;46.46;97671.38;5094589;28;20404;-79
2021/03/15 10:19:52;;;;;;;31.52;14.85;;;;;;;7.77;46.87;97671.91;5112857;28;20019;-80
2021/03/15 10:22:19;;;;;;;24.98;14.25;;;;;;;7.77;47.11;97669.16;5112716;28;20027;-79
2021/03/15 10:24:48;;;;;;;17.45;10.02;;;;;;;7.72;45.90;97670.06;5112665;28;20028;-79
2021/03/15 10:27:23;;;;;;;22.48;11.02;;;;;;;7.71;46.28;97665.72;5112733;28;20026;-79
2021/03/15 10:30:05;;;;;;;28.52;16.23;;;;;;;7.70;45.83;97664.88;5112633;28;20028;-79
2021/03/15 10:32:30;;;;;;;27.20;13.00;;;;;;;7.79;46.20;97656.03;5112459;28;20023;-79
2021/03/15 10:35:01;;;;;;;17.38;9.57;;;;;;;7.81;46.75;97662.00;5094260;28;20494;-79
2021/03/15 10:37:31;;;;;;;48.95;25.00;;;;;;;7.83;46.96;97657.06;5112536;28;20020;-78
2021/03/15 10:39:58;;;;;;;25.05;14.20;;;;;;;7.86;46.88;97656.47;5112802;28;20031;-79
2021/03/15 10:42:24;;;;;;;23.13;12.68;;;;;;;7.89;47.16;97653.16;5112651;28;20085;-79
2021/03/15 10:44:50;;;;;;;21.55;11.82;;;;;;;7.96;46.80;97653.53;5112471;28;20023;-79
2021/03/15 10:47:27;;;;;;;61.45;21.17;;;;;;;8.02;46.39;97655.09;5096981;28;20462;-79
2021/03/15 10:49:52;;;;;;;51.08;19.13;;;;;;;8.11;46.47;97646.22;5109950;28;20108;-78
2021/03/15 10:52:32;;;;;;;48.03;19.85;;;;;;;8.27;46.77;97642.09;5095287;28;20111;-79
2021/03/15 10:55:18;;;;;;;21.87;13.60;;;;;;;8.39;47.04;97644.34;5095355;28;20107;-79
2021/03/15 10:58:03;;;;;;;46.67;17.85;;;;;;;8.57;46.62;97633.63;5095426;28;20024;-79
2021/03/15 11:00:31;;;;;;;16.85;9.15;;;;;;;8.73;46.71;97639.63;5095358;28;20067;-79
2021/03/15 11:02:57;;;;;;;28.73;14.55;;;;;;;8.77;46.29;97635.16;5095264;28;20063;-83
2021/03/15 11:05:23;;;;;;;17.17;9.52;;;;;;;8.88;46.05;97630.31;5095191;28;20067;-82
2021/03/15 11:07:51;;;;;;;14.23;9.27;;;;;;;8.97;45.44;97628.44;5095387;28;20030;-82
2021/03/15 11:10:25;;;;;;;24.77;18.25;;;;;;;9.07;45.01;97624.72;5084386;28;20560;-82
2021/03/15 11:12:53;;;;;;;13.63;9.75;;;;;;;9.15;44.64;97626.72;5110715;28;20029;-81
2021/03/15 11:15:36;;;;;;;11.07;6.10;;;;;;;9.13;45.17;97614.47;5107512;27;20019;-80
2021/03/15 11:18:25;;;;;;;10.70;6.22;;;;;;;9.22;44.21;97607.94;5108281;28;20027;-80
2021/03/15 11:20:58;;;;;;;11.23;6.13;;;;;;;9.22;43.19;97607.16;5101804;28;20039;-80
2021/03/15 11:23:34;;;;;;;11.68;9.05;;;;;;;9.19;43.39;97605.03;5114726;28;20114;-81
2021/03/15 11:26:08;;;;;;;11.50;6.10;;;;;;;9.28;42.89;97607.81;5115119;28;20020;-80
2021/03/15 11:28:37;;;;;;;19.05;9.75;;;;;;;9.44;43.86;97595.41;5114990;28;20030;-81
2021/03/15 11:31:03;;;;;;;16.58;10.05;;;;;;;9.63;43.02;97599.88;5114846;28;20065;-81
2021/03/15 11:33:29;;;;;;;8.45;5.35;;;;;;;9.65;42.50;97589.44;5115083;28;20031;-81
2021/03/15 11:36:00;;;;;;;8.90;6.00;;;;;;;9.55;42.03;97587.75;5096502;28;20035;-80
2021/03/15 11:38:26;;;;;;;14.70;8.75;;;;;;;9.41;42.23;97582.34;5115083;28;20367;-82
2021/03/15 11:40:53;;;;;;;12.35;7.00;;;;;;;9.30;41.89;97586.44;5095929;28;20028;-81
2021/03/15 11:43:19;;;;;;;39.38;21.88;;;;;;;9.12;41.03;97580.00;5114601;28;20494;-82